sensor_id;sensor_type;location;lat;lon;timestamp;P1;durP1;ratioP1;P2;durP2;ratioP2
7110;SDS011;3597;42.650;23.386;2022-09-09T00:00:12;7.43;;;7.23;;
7110;SDS011;3597;42.650;23.386;2022-09-09T00:02:40;8.03;;;7.90;;
7110;SDS011;3597;42.650;23.386;2022-09-09T00:08:01;8.47;;;8.27;;
7110;SDS011;3597;42.650;23.386;2022-09-09T00:10:37;9.27;;;9.07;;
7110;SDS011;3597;42.650;23.386;2022-09-09T00:19:02;9.07;;;8.87;;
7110;SDS011;3597;42.650;23.386;2022-09-09T00:30:40;9.67;;;9.47;;
7110;SDS011;3597;42.650;23.386;2022-09-09T00:32:43;9.70;;;9.50;;
7110;SDS011;3597;42.650;23.386;2022-09-09T00:37:34;8.87;;;8.67;;
7110;SDS011;3597;42.650;23.386;2022-09-09T00:40:01;8.33;;;8.13;;
7110;SDS011;3597;42.650;23.386;2022-09-09T00:42:41;6.10;;;6.00;;
7110;SDS011;3597;42.650;23.386;2022-09-09T00:45:12;6.20;;;6.10;;
7110;SDS011;3597;42.650;23.386;2022-09-09T00:47:52;5.90;;;5.80;;
7110;SDS011;3597;42.650;23.386;2022-09-09T00:58:33;6.83;;;6.73;;
7110;SDS011;3597;42.650;23.386;2022-09-09T01:03:37;6.40;;;6.23;;
7110;SDS011;3597;42.650;23.386;2022-09-09T01:06:16;6.33;;;6.13;;
7110;SDS011;3597;42.650;23.386;2022-09-09T01:11:33;5.77;;;5.67;;
7110;SDS011;3597;42.650;23.386;2022-09-09T01:17:01;6.90;;;6.60;;
7110;SDS011;3597;42.650;23.386;2022-09-09T01:27:46;7.20;;;7.10;;
7110;SDS011;3597;42.650;23.386;2022-09-09T01:30:12;7.57;;;7.37;;
7110;SDS011;3597;42.650;23.386;2022-09-09T01:32:46;8.00;;;7.90;;
7110;SDS011;3597;42.650;23.386;2022-09-09T01:38:03;7.67;;;7.47;;
7110;SDS011;3597;42.650;23.386;2022-09-09T01:40:29;7.60;;;7.50;;
7110;SDS011;3597;42.650;23.386;2022-09-09T01:42:54;8.43;;;8.23;;
7110;SDS011;3597;42.650;23.386;2022-09-09T01:45:20;8.87;;;8.53;;
7110;SDS011;3597;42.650;23.386;2022-09-09T01:47:46;8.50;;;8.30;;
7110;SDS011;3597;42.650;23.386;2022-09-09T01:50:13;9.40;;;9.00;;
7110;SDS011;3597;42.650;23.386;2022-09-09T01:52:40;9.43;;;9.23;;
7110;SDS011;3597;42.650;23.386;2022-09-09T01:55:06;8.57;;;8.30;;
7110;SDS011;3597;42.650;23.386;2022-09-09T01:57:50;6.73;;;6.63;;
7110;SDS011;3597;42.650;23.386;2022-09-09T02:00:18;6.13;;;6.00;;
7110;SDS011;3597;42.650;23.386;2022-09-09T02:02:48;5.70;;;5.60;;
7110;SDS011;3597;42.650;23.386;2022-09-09T02:08:17;4.67;;;4.57;;
7110;SDS011;3597;42.650;23.386;2022-09-09T02:13:51;4.63;;;4.53;;
7110;SDS011;3597;42.650;23.386;2022-09-09T02:19:06;5.50;;;5.40;;
7110;SDS011;3597;42.650;23.386;2022-09-09T02:21:42;5.47;;;5.27;;
7110;SDS011;3597;42.650;23.386;2022-09-09T02:24:09;6.33;;;6.23;;
7110;SDS011;3597;42.650;23.386;2022-09-09T02:26:37;6.43;;;6.23;;
7110;SDS011;3597;42.650;23.386;2022-09-09T02:29:06;6.60;;;6.50;;
7110;SDS011;3597;42.650;23.386;2022-09-09T02:31:33;6.50;;;6.30;;
7110;SDS011;3597;42.650;23.386;2022-09-09T02:34:00;6.87;;;6.67;;
7110;SDS011;3597;42.650;23.386;2022-09-09T02:36:28;7.53;;;7.33;;
7110;SDS011;3597;42.650;23.386;2022-09-09T02:38:56;6.47;;;6.37;;
7110;SDS011;3597;42.650;23.386;2022-09-09T02:41:23;6.77;;;6.60;;
7110;SDS011;3597;42.650;23.386;2022-09-09T02:43:51;6.40;;;6.30;;
7110;SDS011;3597;42.650;23.386;2022-09-09T02:49:05;6.77;;;6.67;;
7110;SDS011;3597;42.650;23.386;2022-09-09T02:54:23;6.47;;;6.27;;
7110;SDS011;3597;42.650;23.386;2022-09-09T02:56:55;6.77;;;6.67;;
7110;SDS011;3597;42.650;23.386;2022-09-09T02:59:22;6.90;;;6.80;;
7110;SDS011;3597;42.650;23.386;2022-09-09T03:01:49;7.53;;;7.43;;
7110;SDS011;3597;42.650;23.386;2022-09-09T03:04:15;7.33;;;7.17;;
7110;SDS011;3597;42.650;23.386;2022-09-09T03:06:40;7.90;;;7.77;;
7110;SDS011;3597;42.650;23.386;2022-09-09T03:09:06;8.33;;;8.07;;
7110;SDS011;3597;42.650;23.386;2022-09-09T03:11:32;9.07;;;8.77;;
7110;SDS011;3597;42.650;23.386;2022-09-09T03:13:58;7.43;;;7.23;;
7110;SDS011;3597;42.650;23.386;2022-09-09T03:16:23;5.90;;;5.80;;
7110;SDS011;3597;42.650;23.386;2022-09-09T03:18:49;4.77;;;4.67;;
7110;SDS011;3597;42.650;23.386;2022-09-09T03:21:14;4.60;;;4.50;;
7110;SDS011;3597;42.650;23.386;2022-09-09T03:23:40;4.57;;;4.47;;
7110;SDS011;3597;42.650;23.386;2022-09-09T03:26:05;4.40;;;4.30;;
7110;SDS011;3597;42.650;23.386;2022-09-09T03:28:31;3.83;;;3.73;;
7110;SDS011;3597;42.650;23.386;2022-09-09T03:31:03;3.70;;;3.60;;
7110;SDS011;3597;42.650;23.386;2022-09-09T03:33:29;3.97;;;3.77;;
7110;SDS011;3597;42.650;23.386;2022-09-09T03:35:56;3.80;;;3.70;;
7110;SDS011;3597;42.650;23.386;2022-09-09T03:38:22;3.83;;;3.73;;
7110;SDS011;3597;42.650;23.386;2022-09-09T03:40:49;3.50;;;3.40;;
7110;SDS011;3597;42.650;23.386;2022-09-09T03:43:16;3.60;;;3.50;;
7110;SDS011;3597;42.650;23.386;2022-09-09T03:45:45;3.87;;;3.67;;
7110;SDS011;3597;42.650;23.386;2022-09-09T03:48:12;3.63;;;3.53;;
7110;SDS011;3597;42.650;23.386;2022-09-09T03:50:38;3.67;;;3.57;;
7110;SDS011;3597;42.650;23.386;2022-09-09T03:53:03;4.00;;;3.80;;
7110;SDS011;3597;42.650;23.386;2022-09-09T03:55:31;3.60;;;3.50;;
7110;SDS011;3597;42.650;23.386;2022-09-09T03:57:56;3.90;;;3.80;;
7110;SDS011;3597;42.650;23.386;2022-09-09T04:00:22;3.50;;;3.40;;
7110;SDS011;3597;42.650;23.386;2022-09-09T04:02:47;3.77;;;3.53;;
7110;SDS011;3597;42.650;23.386;2022-09-09T04:05:14;3.80;;;3.70;;
7110;SDS011;3597;42.650;23.386;2022-09-09T04:07:39;3.77;;;3.67;;
7110;SDS011;3597;42.650;23.386;2022-09-09T04:10:05;4.10;;;4.00;;
7110;SDS011;3597;42.650;23.386;2022-09-09T04:12:30;4.43;;;4.33;;
7110;SDS011;3597;42.650;23.386;2022-09-09T04:14:56;4.10;;;3.90;;
7110;SDS011;3597;42.650;23.386;2022-09-09T04:17:21;4.30;;;4.17;;
7110;SDS011;3597;42.650;23.386;2022-09-09T04:19:47;4.50;;;4.37;;
7110;SDS011;3597;42.650;23.386;2022-09-09T04:22:12;4.40;;;4.30;;
7110;SDS011;3597;42.650;23.386;2022-09-09T04:24:37;4.10;;;3.90;;
7110;SDS011;3597;42.650;23.386;2022-09-09T04:27:03;4.30;;;4.20;;
7110;SDS011;3597;42.650;23.386;2022-09-09T04:29:28;4.73;;;3.70;;
7110;SDS011;3597;42.650;23.386;2022-09-09T04:31:54;5.00;;;4.27;;
7110;SDS011;3597;42.650;23.386;2022-09-09T04:34:19;4.20;;;4.10;;
7110;SDS011;3597;42.650;23.386;2022-09-09T04:36:44;4.17;;;4.07;;
7110;SDS011;3597;42.650;23.386;2022-09-09T04:39:10;4.33;;;4.23;;
7110;SDS011;3597;42.650;23.386;2022-09-09T04:41:36;4.93;;;4.83;;
7110;SDS011;3597;42.650;23.386;2022-09-09T04:44:02;8.43;;;8.23;;
7110;SDS011;3597;42.650;23.386;2022-09-09T04:46:28;17.97;;;17.30;;
7110;SDS011;3597;42.650;23.386;2022-09-09T04:48:54;28.17;;;27.07;;
7110;SDS011;3597;42.650;23.386;2022-09-09T04:51:19;46.43;;;44.53;;
7110;SDS011;3597;42.650;23.386;2022-09-09T04:53:44;30.23;;;29.07;;
7110;SDS011;3597;42.650;23.386;2022-09-09T04:56:13;33.27;;;31.97;;
7110;SDS011;3597;42.650;23.386;2022-09-09T04:58:40;37.53;;;35.93;;
7110;SDS011;3597;42.650;23.386;2022-09-09T05:03:35;11.70;;;11.40;;
7110;SDS011;3597;42.650;23.386;2022-09-09T05:06:05;4.53;;;4.43;;
7110;SDS011;3597;42.650;23.386;2022-09-09T05:08:32;5.53;;;5.43;;
7110;SDS011;3597;42.650;23.386;2022-09-09T05:10:57;11.03;;;10.73;;
7110;SDS011;3597;42.650;23.386;2022-09-09T05:13:25;5.10;;;5.00;;
7110;SDS011;3597;42.650;23.386;2022-09-09T05:15:54;2.90;;;2.90;;
7110;SDS011;3597;42.650;23.386;2022-09-09T05:18:20;3.13;;;3.13;;
7110;SDS011;3597;42.650;23.386;2022-09-09T05:20:47;3.27;;;3.27;;
7110;SDS011;3597;42.650;23.386;2022-09-09T05:23:13;2.73;;;2.73;;
7110;SDS011;3597;42.650;23.386;2022-09-09T05:25:38;2.87;;;2.67;;
7110;SDS011;3597;42.650;23.386;2022-09-09T05:28:04;2.93;;;2.93;;
7110;SDS011;3597;42.650;23.386;2022-09-09T05:30:29;3.70;;;3.70;;
7110;SDS011;3597;42.650;23.386;2022-09-09T05:32:55;3.07;;;3.07;;
7110;SDS011;3597;42.650;23.386;2022-09-09T05:35:21;2.63;;;2.63;;
7110;SDS011;3597;42.650;23.386;2022-09-09T05:37:48;4.50;;;4.40;;
7110;SDS011;3597;42.650;23.386;2022-09-09T05:40:13;7.10;;;7.00;;
7110;SDS011;3597;42.650;23.386;2022-09-09T05:42:39;7.78;;;7.68;;
7110;SDS011;3597;42.650;23.386;2022-09-09T05:45:05;5.75;;;5.65;;
7110;SDS011;3597;42.650;23.386;2022-09-09T05:47:32;5.28;;;5.18;;
7110;SDS011;3597;42.650;23.386;2022-09-09T05:49:58;4.40;;;4.40;;
7110;SDS011;3597;42.650;23.386;2022-09-09T05:52:23;5.28;;;5.18;;
7110;SDS011;3597;42.650;23.386;2022-09-09T05:54:50;5.55;;;5.30;;
7110;SDS011;3597;42.650;23.386;2022-09-09T05:57:16;5.10;;;5.00;;
7110;SDS011;3597;42.650;23.386;2022-09-09T05:59:42;4.10;;;4.00;;
7110;SDS011;3597;42.650;23.386;2022-09-09T06:02:08;3.88;;;3.78;;
7110;SDS011;3597;42.650;23.386;2022-09-09T06:04:33;4.50;;;4.40;;
7110;SDS011;3597;42.650;23.386;2022-09-09T06:06:59;3.65;;;3.65;;
7110;SDS011;3597;42.650;23.386;2022-09-09T06:09:25;3.67;;;3.58;;
7110;SDS011;3597;42.650;23.386;2022-09-09T06:11:50;3.88;;;3.88;;
7110;SDS011;3597;42.650;23.386;2022-09-09T06:14:16;4.28;;;4.18;;
7110;SDS011;3597;42.650;23.386;2022-09-09T06:16:43;3.70;;;3.60;;
7110;SDS011;3597;42.650;23.386;2022-09-09T06:19:09;3.78;;;3.58;;
7110;SDS011;3597;42.650;23.386;2022-09-09T06:21:35;3.92;;;3.92;;
7110;SDS011;3597;42.650;23.386;2022-09-09T06:24:02;3.67;;;3.28;;
7110;SDS011;3597;42.650;23.386;2022-09-09T06:26:32;3.75;;;3.58;;
7110;SDS011;3597;42.650;23.386;2022-09-09T06:28:59;3.40;;;3.40;;
7110;SDS011;3597;42.650;23.386;2022-09-09T06:31:26;4.10;;;3.90;;
7110;SDS011;3597;42.650;23.386;2022-09-09T06:33:55;3.35;;;3.15;;
7110;SDS011;3597;42.650;23.386;2022-09-09T06:36:23;3.20;;;3.20;;
7110;SDS011;3597;42.650;23.386;2022-09-09T06:38:52;3.90;;;3.88;;
7110;SDS011;3597;42.650;23.386;2022-09-09T06:41:18;3.97;;;3.97;;
7110;SDS011;3597;42.650;23.386;2022-09-09T06:43:45;3.83;;;3.72;;
7110;SDS011;3597;42.650;23.386;2022-09-09T06:46:12;4.47;;;4.28;;
7110;SDS011;3597;42.650;23.386;2022-09-09T06:48:42;4.63;;;4.53;;
7110;SDS011;3597;42.650;23.386;2022-09-09T06:53:42;4.10;;;4.10;;
7110;SDS011;3597;42.650;23.386;2022-09-09T06:58:35;4.45;;;4.43;;
7110;SDS011;3597;42.650;23.386;2022-09-09T07:01:10;4.63;;;4.43;;
7110;SDS011;3597;42.650;23.386;2022-09-09T07:03:37;4.55;;;4.45;;
7110;SDS011;3597;42.650;23.386;2022-09-09T07:06:03;4.30;;;4.20;;
7110;SDS011;3597;42.650;23.386;2022-09-09T07:08:29;4.05;;;3.95;;
7110;SDS011;3597;42.650;23.386;2022-09-09T07:11:01;4.40;;;4.40;;
7110;SDS011;3597;42.650;23.386;2022-09-09T07:13:30;4.10;;;4.10;;
7110;SDS011;3597;42.650;23.386;2022-09-09T07:16:02;4.57;;;4.47;;
7110;SDS011;3597;42.650;23.386;2022-09-09T07:18:31;4.72;;;4.63;;
7110;SDS011;3597;42.650;23.386;2022-09-09T07:20:56;4.38;;;4.28;;
7110;SDS011;3597;42.650;23.386;2022-09-09T07:23:22;4.30;;;4.30;;
7110;SDS011;3597;42.650;23.386;2022-09-09T07:25:48;4.22;;;4.07;;
7110;SDS011;3597;42.650;23.386;2022-09-09T07:28:15;4.15;;;4.15;;
7110;SDS011;3597;42.650;23.386;2022-09-09T07:30:40;4.75;;;4.65;;
7110;SDS011;3597;42.650;23.386;2022-09-09T07:33:06;4.13;;;4.03;;
7110;SDS011;3597;42.650;23.386;2022-09-09T07:35:32;4.57;;;4.47;;
7110;SDS011;3597;42.650;23.386;2022-09-09T07:37:57;4.47;;;4.40;;
7110;SDS011;3597;42.650;23.386;2022-09-09T07:40:23;3.83;;;3.83;;
7110;SDS011;3597;42.650;23.386;2022-09-09T07:42:49;3.10;;;3.10;;
7110;SDS011;3597;42.650;23.386;2022-09-09T07:45:15;3.13;;;3.13;;
7110;SDS011;3597;42.650;23.386;2022-09-09T07:47:40;3.53;;;3.53;;
7110;SDS011;3597;42.650;23.386;2022-09-09T07:50:07;3.63;;;3.53;;
7110;SDS011;3597;42.650;23.386;2022-09-09T07:52:34;3.38;;;3.28;;
7110;SDS011;3597;42.650;23.386;2022-09-09T07:55:00;3.33;;;3.33;;
7110;SDS011;3597;42.650;23.386;2022-09-09T07:57:27;3.72;;;3.72;;
7110;SDS011;3597;42.650;23.386;2022-09-09T07:59:55;3.55;;;3.45;;
7110;SDS011;3597;42.650;23.386;2022-09-09T08:02:21;3.30;;;3.30;;
7110;SDS011;3597;42.650;23.386;2022-09-09T08:04:48;3.25;;;3.25;;
7110;SDS011;3597;42.650;23.386;2022-09-09T08:07:13;3.28;;;3.28;;
7110;SDS011;3597;42.650;23.386;2022-09-09T08:09:39;3.30;;;3.30;;
7110;SDS011;3597;42.650;23.386;2022-09-09T08:12:04;3.72;;;3.50;;
7110;SDS011;3597;42.650;23.386;2022-09-09T08:14:33;3.20;;;3.20;;
7110;SDS011;3597;42.650;23.386;2022-09-09T08:16:59;3.15;;;3.08;;
7110;SDS011;3597;42.650;23.386;2022-09-09T08:19:24;3.13;;;3.13;;
7110;SDS011;3597;42.650;23.386;2022-09-09T08:21:50;3.10;;;3.10;;
7110;SDS011;3597;42.650;23.386;2022-09-09T08:24:15;3.55;;;3.45;;
7110;SDS011;3597;42.650;23.386;2022-09-09T08:26:42;3.50;;;3.50;;
7110;SDS011;3597;42.650;23.386;2022-09-09T08:29:09;3.38;;;3.38;;
7110;SDS011;3597;42.650;23.386;2022-09-09T08:31:39;3.15;;;3.15;;
7110;SDS011;3597;42.650;23.386;2022-09-09T08:34:07;3.20;;;3.20;;
7110;SDS011;3597;42.650;23.386;2022-09-09T08:36:38;3.25;;;3.10;;
7110;SDS011;3597;42.650;23.386;2022-09-09T08:39:08;3.17;;;3.17;;
7110;SDS011;3597;42.650;23.386;2022-09-09T08:50:21;3.20;;;3.10;;
7110;SDS011;3597;42.650;23.386;2022-09-09T08:52:59;3.60;;;3.60;;
7110;SDS011;3597;42.650;23.386;2022-09-09T08:58:09;3.72;;;3.63;;
7110;SDS011;3597;42.650;23.386;2022-09-09T09:03:19;3.00;;;3.00;;
7110;SDS011;3597;42.650;23.386;2022-09-09T09:09:11;3.60;;;3.50;;
7110;SDS011;3597;42.650;23.386;2022-09-09T09:11:47;3.30;;;3.20;;
7110;SDS011;3597;42.650;23.386;2022-09-09T09:14:21;3.30;;;3.13;;
7110;SDS011;3597;42.650;23.386;2022-09-09T09:16:53;3.15;;;3.15;;
7110;SDS011;3597;42.650;23.386;2022-09-09T09:19:22;3.42;;;3.42;;
7110;SDS011;3597;42.650;23.386;2022-09-09T09:21:56;3.83;;;3.83;;
7110;SDS011;3597;42.650;23.386;2022-09-09T09:24:27;4.43;;;4.43;;
7110;SDS011;3597;42.650;23.386;2022-09-09T09:32:38;3.72;;;3.72;;
7110;SDS011;3597;42.650;23.386;2022-09-09T09:35:06;3.60;;;3.60;;
7110;SDS011;3597;42.650;23.386;2022-09-09T09:37:35;3.35;;;3.35;;
7110;SDS011;3597;42.650;23.386;2022-09-09T09:40:13;3.92;;;3.92;;
7110;SDS011;3597;42.650;23.386;2022-09-09T09:48:10;3.97;;;3.88;;
7110;SDS011;3597;42.650;23.386;2022-09-09T09:50:46;4.47;;;4.38;;
7110;SDS011;3597;42.650;23.386;2022-09-09T09:53:20;3.72;;;3.65;;
7110;SDS011;3597;42.650;23.386;2022-09-09T09:55:52;3.88;;;3.85;;
7110;SDS011;3597;42.650;23.386;2022-09-09T09:58:20;3.53;;;3.50;;
7110;SDS011;3597;42.650;23.386;2022-09-09T10:00:51;3.10;;;3.10;;
7110;SDS011;3597;42.650;23.386;2022-09-09T10:03:28;3.40;;;3.40;;
7110;SDS011;3597;42.650;23.386;2022-09-09T10:05:54;3.58;;;3.58;;
7110;SDS011;3597;42.650;23.386;2022-09-09T10:08:21;3.40;;;3.40;;
7110;SDS011;3597;42.650;23.386;2022-09-09T10:32:49;3.40;;;3.40;;
7110;SDS011;3597;42.650;23.386;2022-09-09T10:35:27;3.35;;;3.35;;
7110;SDS011;3597;42.650;23.386;2022-09-09T10:38:14;3.65;;;3.65;;
7110;SDS011;3597;42.650;23.386;2022-09-09T10:51:43;3.80;;;3.70;;
7110;SDS011;3597;42.650;23.386;2022-09-09T10:54:19;3.92;;;3.90;;
7110;SDS011;3597;42.650;23.386;2022-09-09T10:57:48;3.92;;;3.83;;
7110;SDS011;3597;42.650;23.386;2022-09-09T11:00:03;3.90;;;3.80;;
7110;SDS011;3597;42.650;23.386;2022-09-09T11:02:32;4.03;;;3.92;;
7110;SDS011;3597;42.650;23.386;2022-09-09T11:10:02;4.00;;;3.90;;
7110;SDS011;3597;42.650;23.386;2022-09-09T11:12:31;4.20;;;4.10;;
7110;SDS011;3597;42.650;23.386;2022-09-09T11:15:01;4.40;;;4.30;;
7110;SDS011;3597;42.650;23.386;2022-09-09T11:17:42;4.57;;;4.47;;
7110;SDS011;3597;42.650;23.386;2022-09-09T11:20:12;4.82;;;4.72;;
7110;SDS011;3597;42.650;23.386;2022-09-09T11:25:55;4.38;;;4.32;;
7110;SDS011;3597;42.650;23.386;2022-09-09T11:44:39;5.07;;;4.97;;
7110;SDS011;3597;42.650;23.386;2022-09-09T11:50:27;4.78;;;4.68;;
7110;SDS011;3597;42.650;23.386;2022-09-09T11:53:19;6.30;;;6.10;;
7110;SDS011;3597;42.650;23.386;2022-09-09T11:55:47;6.10;;;5.85;;
7110;SDS011;3597;42.650;23.386;2022-09-09T12:00:39;5.68;;;5.57;;
7110;SDS011;3597;42.650;23.386;2022-09-09T12:08:45;5.22;;;5.13;;
7110;SDS011;3597;42.650;23.386;2022-09-09T12:11:22;5.18;;;5.07;;
7110;SDS011;3597;42.650;23.386;2022-09-09T12:13:56;5.80;;;5.70;;
7110;SDS011;3597;42.650;23.386;2022-09-09T12:16:33;5.45;;;5.35;;
7110;SDS011;3597;42.650;23.386;2022-09-09T12:19:21;5.70;;;5.60;;
7110;SDS011;3597;42.650;23.386;2022-09-09T12:27:14;5.65;;;5.55;;
7110;SDS011;3597;42.650;23.386;2022-09-09T12:32:16;6.05;;;5.95;;
7110;SDS011;3597;42.650;23.386;2022-09-09T12:39:57;4.80;;;4.70;;
7110;SDS011;3597;42.650;23.386;2022-09-09T12:42:25;4.40;;;4.38;;
7110;SDS011;3597;42.650;23.386;2022-09-09T12:44:52;4.82;;;4.72;;
7110;SDS011;3597;42.650;23.386;2022-09-09T12:47:23;4.22;;;4.18;;
7110;SDS011;3597;42.650;23.386;2022-09-09T12:49:54;4.45;;;4.35;;
7110;SDS011;3597;42.650;23.386;2022-09-09T12:52:28;4.55;;;4.45;;
7110;SDS011;3597;42.650;23.386;2022-09-09T12:54:57;4.53;;;4.43;;
7110;SDS011;3597;42.650;23.386;2022-09-09T12:57:23;4.72;;;4.53;;
7110;SDS011;3597;42.650;23.386;2022-09-09T12:59:52;4.38;;;4.30;;
7110;SDS011;3597;42.650;23.386;2022-09-09T13:04:47;4.15;;;4.05;;
7110;SDS011;3597;42.650;23.386;2022-09-09T13:07:15;4.65;;;4.55;;
7110;SDS011;3597;42.650;23.386;2022-09-09T13:09:41;4.20;;;4.10;;
7110;SDS011;3597;42.650;23.386;2022-09-09T13:12:10;4.72;;;4.47;;
7110;SDS011;3597;42.650;23.386;2022-09-09T13:14:42;4.20;;;4.20;;
7110;SDS011;3597;42.650;23.386;2022-09-09T13:17:17;4.43;;;4.32;;
7110;SDS011;3597;42.650;23.386;2022-09-09T13:19:45;4.28;;;4.18;;
7110;SDS011;3597;42.650;23.386;2022-09-09T13:22:16;3.95;;;3.88;;
7110;SDS011;3597;42.650;23.386;2022-09-09T13:24:44;4.60;;;4.38;;
7110;SDS011;3597;42.650;23.386;2022-09-09T13:29:56;4.82;;;4.68;;
7110;SDS011;3597;42.650;23.386;2022-09-09T13:32:22;4.47;;;4.38;;
7110;SDS011;3597;42.650;23.386;2022-09-09T13:34:53;5.25;;;5.05;;
7110;SDS011;3597;42.650;23.386;2022-09-09T13:37:41;5.05;;;4.95;;
7110;SDS011;3597;42.650;23.386;2022-09-09T13:40:18;4.78;;;4.68;;
7110;SDS011;3597;42.650;23.386;2022-09-09T13:42:46;4.90;;;4.80;;
7110;SDS011;3597;42.650;23.386;2022-09-09T13:45:16;4.85;;;4.75;;
7110;SDS011;3597;42.650;23.386;2022-09-09T13:47:45;5.35;;;5.25;;
7110;SDS011;3597;42.650;23.386;2022-09-09T13:50:25;5.32;;;5.22;;
7110;SDS011;3597;42.650;23.386;2022-09-09T13:52:55;5.30;;;5.20;;
7110;SDS011;3597;42.650;23.386;2022-09-09T13:55:23;5.88;;;5.78;;
7110;SDS011;3597;42.650;23.386;2022-09-09T13:57:53;6.32;;;6.18;;
7110;SDS011;3597;42.650;23.386;2022-09-09T14:00:20;5.68;;;5.57;;
7110;SDS011;3597;42.650;23.386;2022-09-09T14:02:46;6.05;;;5.80;;
7110;SDS011;3597;42.650;23.386;2022-09-09T14:05:13;5.47;;;5.20;;
7110;SDS011;3597;42.650;23.386;2022-09-09T14:07:38;4.82;;;4.72;;
7110;SDS011;3597;42.650;23.386;2022-09-09T14:10:05;4.97;;;4.65;;
7110;SDS011;3597;42.650;23.386;2022-09-09T14:12:32;5.10;;;5.00;;
7110;SDS011;3597;42.650;23.386;2022-09-09T14:14:58;4.95;;;4.85;;
7110;SDS011;3597;42.650;23.386;2022-09-09T14:17:24;5.00;;;4.80;;
7110;SDS011;3597;42.650;23.386;2022-09-09T14:19:52;4.70;;;4.60;;
7110;SDS011;3597;42.650;23.386;2022-09-09T14:22:17;5.18;;;5.00;;
7110;SDS011;3597;42.650;23.386;2022-09-09T14:24:43;4.95;;;4.85;;
7110;SDS011;3597;42.650;23.386;2022-09-09T14:27:08;5.05;;;4.95;;
7110;SDS011;3597;42.650;23.386;2022-09-09T14:29:33;5.43;;;5.32;;
7110;SDS011;3597;42.650;23.386;2022-09-09T14:31:59;6.13;;;5.88;;
7110;SDS011;3597;42.650;23.386;2022-09-09T14:34:26;5.03;;;4.93;;
7110;SDS011;3597;42.650;23.386;2022-09-09T14:36:51;5.00;;;4.90;;
7110;SDS011;3597;42.650;23.386;2022-09-09T14:39:16;5.15;;;5.05;;
7110;SDS011;3597;42.650;23.386;2022-09-09T14:41:42;4.78;;;4.68;;
7110;SDS011;3597;42.650;23.386;2022-09-09T14:44:08;4.85;;;4.75;;
7110;SDS011;3597;42.650;23.386;2022-09-09T14:46:33;4.78;;;4.57;;
7110;SDS011;3597;42.650;23.386;2022-09-09T14:48:59;5.05;;;4.95;;
7110;SDS011;3597;42.650;23.386;2022-09-09T14:51:25;4.25;;;4.15;;
7110;SDS011;3597;42.650;23.386;2022-09-09T14:53:52;4.50;;;4.40;;
7110;SDS011;3597;42.650;23.386;2022-09-09T14:56:23;4.22;;;4.13;;
7110;SDS011;3597;42.650;23.386;2022-09-09T14:58:50;3.67;;;3.60;;
7110;SDS011;3597;42.650;23.386;2022-09-09T15:01:16;4.20;;;4.00;;
7110;SDS011;3597;42.650;23.386;2022-09-09T15:03:48;3.60;;;3.50;;
7110;SDS011;3597;42.650;23.386;2022-09-09T15:06:17;3.58;;;3.58;;
7110;SDS011;3597;42.650;23.386;2022-09-09T15:08:44;3.72;;;3.63;;
7110;SDS011;3597;42.650;23.386;2022-09-09T15:11:10;3.40;;;3.40;;
7110;SDS011;3597;42.650;23.386;2022-09-09T15:13:37;3.45;;;3.35;;
7110;SDS011;3597;42.650;23.386;2022-09-09T15:16:08;3.15;;;3.15;;
7110;SDS011;3597;42.650;23.386;2022-09-09T15:18:40;3.58;;;3.47;;
7110;SDS011;3597;42.650;23.386;2022-09-09T15:21:14;3.30;;;3.30;;
7110;SDS011;3597;42.650;23.386;2022-09-09T15:23:41;3.17;;;3.17;;
7110;SDS011;3597;42.650;23.386;2022-09-09T15:26:07;3.85;;;3.75;;
7110;SDS011;3597;42.650;23.386;2022-09-09T15:28:33;3.33;;;3.22;;
7110;SDS011;3597;42.650;23.386;2022-09-09T15:31:06;4.00;;;3.90;;
7110;SDS011;3597;42.650;23.386;2022-09-09T15:33:35;4.05;;;3.95;;
7110;SDS011;3597;42.650;23.386;2022-09-09T15:36:13;3.45;;;3.45;;
7110;SDS011;3597;42.650;23.386;2022-09-09T15:38:39;3.67;;;3.58;;
7110;SDS011;3597;42.650;23.386;2022-09-09T15:41:04;3.85;;;3.75;;
7110;SDS011;3597;42.650;23.386;2022-09-09T15:43:30;4.38;;;4.07;;
7110;SDS011;3597;42.650;23.386;2022-09-09T15:45:57;3.85;;;3.75;;
7110;SDS011;3597;42.650;23.386;2022-09-09T15:48:31;4.03;;;3.83;;
7110;SDS011;3597;42.650;23.386;2022-09-09T15:51:03;4.13;;;4.03;;
7110;SDS011;3597;42.650;23.386;2022-09-09T15:53:29;3.40;;;3.30;;
7110;SDS011;3597;42.650;23.386;2022-09-09T15:55:57;3.63;;;3.53;;
7110;SDS011;3597;42.650;23.386;2022-09-09T15:58:23;4.05;;;3.95;;
7110;SDS011;3597;42.650;23.386;2022-09-09T16:00:48;4.25;;;4.05;;
7110;SDS011;3597;42.650;23.386;2022-09-09T16:03:13;3.75;;;3.70;;
7110;SDS011;3597;42.650;23.386;2022-09-09T16:05:39;3.90;;;3.80;;
7110;SDS011;3597;42.650;23.386;2022-09-09T16:08:05;3.78;;;3.67;;
7110;SDS011;3597;42.650;23.386;2022-09-09T16:10:31;3.72;;;3.72;;
7110;SDS011;3597;42.650;23.386;2022-09-09T16:12:56;4.22;;;4.07;;
7110;SDS011;3597;42.650;23.386;2022-09-09T16:15:24;4.18;;;4.07;;
7110;SDS011;3597;42.650;23.386;2022-09-09T16:17:53;4.45;;;4.35;;
7110;SDS011;3597;42.650;23.386;2022-09-09T16:20:18;4.05;;;4.05;;
7110;SDS011;3597;42.650;23.386;2022-09-09T16:22:45;4.20;;;4.10;;
7110;SDS011;3597;42.650;23.386;2022-09-09T16:25:10;4.35;;;4.25;;
7110;SDS011;3597;42.650;23.386;2022-09-09T16:27:36;4.70;;;4.50;;
7110;SDS011;3597;42.650;23.386;2022-09-09T16:30:02;4.20;;;4.10;;
7110;SDS011;3597;42.650;23.386;2022-09-09T16:32:27;4.27;;;4.17;;
7110;SDS011;3597;42.650;23.386;2022-09-09T16:34:53;4.82;;;4.50;;
7110;SDS011;3597;42.650;23.386;2022-09-09T16:37:18;4.45;;;4.32;;
7110;SDS011;3597;42.650;23.386;2022-09-09T16:39:44;4.53;;;4.43;;
7110;SDS011;3597;42.650;23.386;2022-09-09T16:42:09;4.00;;;3.90;;
7110;SDS011;3597;42.650;23.386;2022-09-09T16:44:35;4.43;;;4.33;;
7110;SDS011;3597;42.650;23.386;2022-09-09T16:47:01;4.00;;;3.90;;
7110;SDS011;3597;42.650;23.386;2022-09-09T16:49:26;4.43;;;4.33;;
7110;SDS011;3597;42.650;23.386;2022-09-09T16:51:53;3.97;;;3.95;;
7110;SDS011;3597;42.650;23.386;2022-09-09T16:54:18;4.00;;;3.95;;
7110;SDS011;3597;42.650;23.386;2022-09-09T16:56:45;4.07;;;3.97;;
7110;SDS011;3597;42.650;23.386;2022-09-09T16:59:13;4.28;;;4.18;;
7110;SDS011;3597;42.650;23.386;2022-09-09T17:01:40;4.90;;;4.72;;
7110;SDS011;3597;42.650;23.386;2022-09-09T17:04:07;4.63;;;4.53;;
7110;SDS011;3597;42.650;23.386;2022-09-09T17:06:38;4.20;;;4.20;;
7110;SDS011;3597;42.650;23.386;2022-09-09T17:09:05;4.23;;;4.13;;
7110;SDS011;3597;42.650;23.386;2022-09-09T17:11:32;5.17;;;4.97;;
7110;SDS011;3597;42.650;23.386;2022-09-09T17:13:58;4.68;;;4.57;;
7110;SDS011;3597;42.650;23.386;2022-09-09T17:16:26;4.50;;;4.40;;
7110;SDS011;3597;42.650;23.386;2022-09-09T17:18:53;4.43;;;4.33;;
7110;SDS011;3597;42.650;23.386;2022-09-09T17:21:20;4.70;;;4.60;;
7110;SDS011;3597;42.650;23.386;2022-09-09T17:23:47;4.57;;;4.47;;
7110;SDS011;3597;42.650;23.386;2022-09-09T17:26:14;5.43;;;5.23;;
7110;SDS011;3597;42.650;23.386;2022-09-09T17:28:41;4.90;;;4.80;;
7110;SDS011;3597;42.650;23.386;2022-09-09T17:31:07;5.57;;;5.47;;
7110;SDS011;3597;42.650;23.386;2022-09-09T17:33:35;6.90;;;6.67;;
7110;SDS011;3597;42.650;23.386;2022-09-09T17:36:05;7.23;;;7.03;;
7110;SDS011;3597;42.650;23.386;2022-09-09T17:38:33;6.77;;;6.57;;
7110;SDS011;3597;42.650;23.386;2022-09-09T17:41:08;5.60;;;5.40;;
7110;SDS011;3597;42.650;23.386;2022-09-09T17:43:34;5.97;;;5.67;;
7110;SDS011;3597;42.650;23.386;2022-09-09T17:48:35;7.03;;;6.73;;
7110;SDS011;3597;42.650;23.386;2022-09-09T17:51:02;6.90;;;6.80;;
7110;SDS011;3597;42.650;23.386;2022-09-09T17:53:28;7.57;;;7.30;;
7110;SDS011;3597;42.650;23.386;2022-09-09T17:56:00;6.77;;;6.57;;
7110;SDS011;3597;42.650;23.386;2022-09-09T17:58:27;9.27;;;8.97;;
7110;SDS011;3597;42.650;23.386;2022-09-09T18:00:52;9.27;;;9.07;;
7110;SDS011;3597;42.650;23.386;2022-09-09T18:03:18;11.77;;;11.27;;
7110;SDS011;3597;42.650;23.386;2022-09-09T18:05:43;14.07;;;13.63;;
7110;SDS011;3597;42.650;23.386;2022-09-09T18:08:09;15.97;;;15.33;;
7110;SDS011;3597;42.650;23.386;2022-09-09T18:10:34;16.23;;;15.63;;
7110;SDS011;3597;42.650;23.386;2022-09-09T18:12:59;15.20;;;14.70;;